Tuesday, July 26, 2016, 12:27 AM EDT

KSHD, Staunton / Shenandoah

Location: Weyers Cave, VA, United States Lat: 38.267
Local Time: 12:27 AM EDT ( 4:27 GMT) Lon: -78.9
Time Zone: US/Eastern Elev: 1200 ft

Show me the last for .
Show Decoded

2016-07-26 00:15 METAR KSHD 260415Z AUTO 24005KT 10SM CLR 24/22 A3001 RMK AO2 T02370216 =
2016-07-25 23:55 METAR KSHD 260355Z AUTO 00000KT 10SM CLR 25/21 A3001 RMK AO2 T02510214 =
2016-07-25 23:35 METAR KSHD 260335Z AUTO 00000KT 10SM CLR 24/21 A3002 RMK AO2 T02410207 =
2016-07-25 23:15 METAR KSHD 260315Z AUTO 19003KT 10SM CLR 25/21 A3002 RMK AO2 T02460212 =
2016-07-25 22:55 METAR KSHD 260255Z AUTO 00000KT 10SM CLR 25/21 A3003 RMK AO2 T02500211 =
2016-07-25 22:35 METAR KSHD 260235Z AUTO 00000KT 10SM CLR 25/22 A3002 RMK AO2 T02510218 =
2016-07-25 22:15 METAR KSHD 260215Z AUTO 11003KT 10SM CLR 26/22 A3003 RMK AO2 LTG DSNT W
                 T02630215 =
2016-07-25 21:55 METAR KSHD 260155Z AUTO 00000KT 10SM SCT055 27/21 A3001 RMK AO2 T02690212 =
2016-07-25 21:35 METAR KSHD 260135Z AUTO 19003KT 10SM SCT055 26/22 A3001 RMK AO2 T02610224 =
2016-07-25 21:15 METAR KSHD 260115Z AUTO 00000KT 10SM CLR 28/22 A3000 RMK AO2 LTG DSNT W
                 T02780219 =
2016-07-25 20:55 METAR KSHD 260055Z AUTO 25003KT 10SM CLR 28/23 A2999 RMK AO2 LTG DSNT W
                 T02840230 =
2016-07-25 20:35 METAR KSHD 260035Z AUTO 00000KT 10SM CLR 29/23 A2999 RMK AO2 T02890229 =
2016-07-25 20:15 METAR KSHD 260015Z AUTO 33004KT 10SM CLR 30/23 A2998 RMK AO2 T02950231 =
2016-07-25 19:55 METAR KSHD 252355Z AUTO 22004KT 10SM CLR 30/23 A2997 RMK AO2 T02980230 10342
                 20298 =
2016-07-25 19:35 METAR KSHD 252335Z AUTO 21003KT 10SM CLR 30/23 A2997 RMK AO2 T03010228 =
2016-07-25 19:15 METAR KSHD 252315Z AUTO 22004KT 10SM CLR 30/23 A2996 RMK AO2 LTG DSNT N
                 T03010226 =
2016-07-25 18:55 METAR KSHD 252255Z AUTO 24005KT 10SM CLR 31/22 A2997 RMK AO2 T03080222 =
2016-07-25 18:35 METAR KSHD 252235Z AUTO 23003KT 10SM CLR 31/23 A2996 RMK AO2 T03100234 =
2016-07-25 18:15 METAR KSHD 252215Z AUTO 24006KT 10SM CLR 32/23 A2996 RMK AO2 T03190226 =
2016-07-25 17:55 METAR KSHD 252155Z AUTO 22006KT 10SM CLR 32/24 A2996 RMK AO2 T03210236 =
2016-07-25 17:35 METAR KSHD 252135Z AUTO 23006KT 10SM CLR 32/23 A2996 RMK AO2 T03240227 =
2016-07-25 17:15 METAR KSHD 252115Z AUTO 24010KT 10SM CLR 32/22 A2995 RMK AO2 T03220222 =
2016-07-25 16:55 METAR KSHD 252055Z AUTO 22008KT 10SM CLR 33/23 A2996 RMK AO2 T03280229 =
2016-07-25 16:35 METAR KSHD 252035Z AUTO 21008KT 10SM CLR 33/23 A2996 RMK AO2 T03300233 =
2016-07-25 16:15 METAR KSHD 252015Z AUTO 23008KT 10SM CLR 34/23 A2996 RMK AO2 T03350229 =
2016-07-25 15:55 METAR KSHD 251955Z AUTO 22009KT 10SM CLR 34/23 A2996 RMK AO2 T03380227 =
2016-07-25 15:35 METAR KSHD 251935Z AUTO 21008KT 10SM CLR 34/22 A2997 RMK AO2 T03390218 =
2016-07-25 15:15 METAR KSHD 251915Z AUTO 19007KT 160V230 10SM SCT049 34/22 A2998 RMK AO2 LTG DSNT
                 N T03370224 =
2016-07-25 14:55 METAR KSHD 251855Z AUTO 18010KT 10SM CLR 33/23 A2998 RMK AO2 LTG DSNT N
                 T03340226 =
2016-07-25 14:35 METAR KSHD 251835Z AUTO 18007KT 10SM CLR 34/23 A2999 RMK AO2 T03360225 =
2016-07-25 14:15 METAR KSHD 251815Z AUTO 14004KT 10SM CLR 33/22 A3000 RMK AO2 T03280221 =
2016-07-25 13:55 METAR KSHD 251755Z AUTO 15005KT 10SM CLR 33/22 A3002 RMK AO2 T03260221 10328
                 20230 =
2016-07-25 13:35 METAR KSHD 251735Z AUTO 14003KT 10SM CLR 32/22 A3003 RMK AO2 T03230221 =
2016-07-25 13:15 METAR KSHD 251715Z AUTO 15004KT 10SM CLR 33/23 A3003 RMK AO2 T03270227 =
2016-07-25 12:55 METAR KSHD 251655Z AUTO 14005KT 10SM CLR 33/22 A3004 RMK AO2 T03260224 =
2016-07-25 12:35 METAR KSHD 251635Z AUTO 00000KT 10SM CLR 32/22 A3005 RMK AO2 T03240219 =
2016-07-25 12:15 METAR KSHD 251615Z AUTO 31003KT 10SM CLR 32/22 A3005 RMK AO2 T03170221 =
2016-07-25 11:55 METAR KSHD 251555Z AUTO 00000KT 10SM CLR 32/23 A3005 RMK AO2 T03160225 =
2016-07-25 11:35 METAR KSHD 251535Z AUTO 14004KT 10SM CLR 31/22 A3005 RMK AO2 T03120221 =
2016-07-25 11:15 METAR KSHD 251515Z AUTO 15003KT 10SM CLR 31/23 A3005 RMK AO2 T03050232 =
2016-07-25 10:55 METAR KSHD 251455Z AUTO 17003KT 10SM CLR 30/23 A3005 RMK AO2 T02990228 =
2016-07-25 10:35 METAR KSHD 251435Z AUTO 23004KT 10SM CLR 29/23 A3005 RMK AO2 T02900229 =
2016-07-25 10:15 METAR KSHD 251415Z AUTO 21004KT 10SM CLR 28/23 A3006 RMK AO2 T02830227 =
2016-07-25 09:55 METAR KSHD 251355Z AUTO 22003KT 10SM CLR 28/23 A3006 RMK AO2 T02760225 =
2016-07-25 09:35 METAR KSHD 251335Z AUTO 23003KT 10SM CLR 27/22 A3006 RMK AO2 T02690222 =
2016-07-25 09:15 METAR KSHD 251315Z AUTO 00000KT 10SM CLR 26/22 A3006 RMK AO2 T02630218 =
2016-07-25 08:55 METAR KSHD 251255Z AUTO 00000KT 10SM CLR 26/22 A3006 RMK AO2 T02570218 =
2016-07-25 08:35 METAR KSHD 251235Z AUTO 00000KT 10SM CLR 25/22 A3006 RMK AO2 T02460220 =
2016-07-25 08:15 METAR KSHD 251215Z AUTO 00000KT 10SM CLR 24/22 A3007 RMK AO2 T02380217 =
2016-07-25 07:55 METAR KSHD 251155Z AUTO 00000KT 10SM CLR 23/22 A3007 RMK AO2 T02300216 10230
                 20201 =
2016-07-25 07:35 METAR KSHD 251135Z AUTO 00000KT 7SM CLR 22/21 A3007 RMK AO2 T02200211 =
2016-07-25 07:15 METAR KSHD 251115Z AUTO 00000KT 7SM CLR 21/20 A3007 RMK AO2 T02080201 =
2016-07-25 06:55 METAR KSHD 251055Z AUTO 00000KT 5SM BR CLR 21/20 A3007 RMK AO2 T02070202 =
2016-07-25 06:35 METAR KSHD 251035Z AUTO 00000KT 5SM BR CLR 21/20 A3007 RMK AO2 T02070204 =
2016-07-25 06:15 METAR KSHD 251015Z AUTO 00000KT 7SM CLR 21/20 A3007 RMK AO2 T02050201 =
2016-07-25 05:55 METAR KSHD 250955Z AUTO 00000KT 7SM CLR 21/20 A3006 RMK AO2 T02070204 =
2016-07-25 05:35 METAR KSHD 250935Z AUTO 00000KT 7SM SCT110 21/21 A3006 RMK AO2 T02080205 =
2016-07-25 05:15 METAR KSHD 250915Z AUTO 00000KT 5SM BR CLR 20/20 A3006 RMK AO2 T02030199 =
2016-07-25 04:55 METAR KSHD 250855Z AUTO 00000KT 5SM BR CLR 21/20 A3006 RMK AO2 T02050202 =
2016-07-25 04:35 METAR KSHD 250835Z AUTO 00000KT 7SM SCT120 21/21 A3006 RMK AO2 T02100206 =
2016-07-25 04:15 METAR KSHD 250815Z AUTO 00000KT 7SM CLR 21/21 A3006 RMK AO2 T02130206 =
2016-07-25 03:55 METAR KSHD 250755Z AUTO 00000KT 10SM CLR 21/20 A3006 RMK AO2 T02120204 =
2016-07-25 03:35 METAR KSHD 250735Z AUTO 00000KT 10SM CLR 22/21 A3006 RMK AO2 T02190210 =
2016-07-25 03:15 METAR KSHD 250715Z AUTO 00000KT 10SM CLR 22/21 A3006 RMK AO2 T02240213 =
2016-07-25 02:55 METAR KSHD 250655Z AUTO 00000KT 7SM CLR 22/21 A3005 RMK AO2 T02170213 =
2016-07-25 02:35 METAR KSHD 250635Z AUTO 00000KT 10SM CLR 22/21 A3004 RMK AO2 T02150207 =
2016-07-25 02:15 METAR KSHD 250615Z AUTO 00000KT 10SM CLR 22/21 A3005 RMK AO2 T02160210 =
2016-07-25 01:55 METAR KSHD 250555Z AUTO 00000KT 10SM CLR 22/21 A3005 RMK AO2 T02200211 10296
                 20220 403360192 =
2016-07-25 01:35 METAR KSHD 250535Z AUTO 00000KT 10SM CLR 22/21 A3005 RMK AO2 T02220213 =
2016-07-25 01:15 METAR KSHD 250515Z AUTO 00000KT 10SM CLR 23/22 A3007 RMK AO2 T02260215 =
2016-07-25 00:55 METAR KSHD 250455Z AUTO 00000KT 10SM CLR 23/21 A3007 RMK AO2 T02260214 =
2016-07-25 00:35 METAR KSHD 250435Z AUTO 00000KT 10SM CLR 23/22 A3007 RMK AO2 T02250215 =

Support USWX by starting your Amazon purchase here.